createdAt,value
2018-07-30T00:02:18.687Z,1260.55
2018-07-30T00:04:47.547Z,1258.45
2018-07-30T00:07:16.327Z,1257.45
2018-07-30T00:09:45.105Z,1259.65
2018-07-30T00:12:13.866Z,1255.98
2018-07-30T00:14:42.590Z,1256.73
2018-07-30T00:17:11.281Z,1253.80
2018-07-30T00:19:40.136Z,1258.28
2018-07-30T00:22:08.914Z,1262.55
2018-07-30T00:24:37.579Z,1260.18
2018-07-30T00:27:06.400Z,1255.45
2018-07-30T00:29:35.151Z,1256.05
2018-07-30T00:32:05.015Z,1254.55
2018-07-30T00:34:34.784Z,1257.80
2018-07-30T00:37:03.660Z,1258.85
2018-07-30T00:39:32.442Z,1261.03
2018-07-30T00:42:01.148Z,1258.43
2018-07-30T00:44:29.998Z,1262.48
2018-07-30T00:46:58.860Z,1262.63
2018-07-30T00:49:27.676Z,1264.45
2018-07-30T00:51:56.481Z,1264.48
2018-07-30T00:54:25.236Z,1264.15
2018-07-30T00:56:54.249Z,1265.65
2018-07-30T00:59:22.995Z,1270.83
2018-07-30T01:01:51.984Z,1265.28
2018-07-30T01:04:20.904Z,1268.80
2018-07-30T01:09:23.133Z,1263.98
2018-07-30T01:11:51.934Z,1264.33
2018-07-30T01:14:20.743Z,1263.88
2018-07-30T01:16:49.441Z,1263.88
2018-07-30T01:19:19.136Z,1261.55
2018-07-30T01:21:48.762Z,1261.97
2018-07-30T01:24:17.548Z,1266.05
2018-07-30T01:26:46.187Z,1259.80
2018-07-30T01:29:14.990Z,1266.20
2018-07-30T01:31:43.773Z,1263.68
2018-07-30T01:34:12.529Z,1263.80
2018-07-30T01:36:42.339Z,1262.83
2018-07-30T01:39:11.263Z,1267.20
2018-07-30T01:41:40.007Z,1260.18
2018-07-30T01:44:08.752Z,1256.60
2018-07-30T01:46:37.632Z,1267.47
2018-07-30T01:49:06.359Z,1262.63
2018-07-30T01:51:35.133Z,1262.60
2018-07-30T01:54:03.868Z,1261.97
2018-07-30T01:56:32.613Z,1261.68
2018-07-30T01:59:01.302Z,1260.05
2018-07-30T02:01:30.036Z,1258.80
2018-07-30T02:03:58.756Z,1266.22
2018-07-30T02:06:27.486Z,1267.70
2018-07-30T02:08:56.173Z,1255.35
2018-07-30T02:11:25.281Z,1260.22
2018-07-30T02:13:53.975Z,1249.10
2018-07-30T02:16:23.802Z,1247.47
2018-07-30T02:18:52.596Z,1250.70
2018-07-30T02:21:21.302Z,1251.47
2018-07-30T02:23:51.100Z,1254.53
2018-07-30T02:26:19.821Z,1257.30
2018-07-30T02:28:48.617Z,1257.65
2018-07-30T02:31:17.321Z,1256.00
2018-07-30T02:33:46.013Z,1252.40
2018-07-30T02:36:15.724Z,1252.67
2018-07-30T02:38:45.448Z,1253.13
2018-07-30T02:41:15.215Z,1259.13
2018-07-30T02:43:44.022Z,1251.58
2018-07-30T02:46:12.791Z,1258.28
2018-07-30T02:48:41.428Z,1252.73
2018-07-30T02:51:10.142Z,1247.83
2018-07-30T02:53:38.455Z,1236.90
2018-07-30T02:56:07.216Z,1246.05
2018-07-30T02:58:35.914Z,1242.55
2018-07-30T03:01:04.702Z,1242.18
2018-07-30T03:03:34.134Z,1230.73
2018-07-30T03:06:03.763Z,1234.58
2018-07-30T03:08:32.615Z,1226.25
2018-07-30T03:11:01.445Z,1231.95
2018-07-30T03:13:30.181Z,1237.75
2018-07-30T03:15:58.941Z,1228.83
2018-07-30T03:18:27.837Z,1227.50
2018-07-30T03:20:56.694Z,1225.05
2018-07-30T03:23:25.413Z,1230.78
2018-07-30T03:25:55.203Z,1225.60
2018-07-30T03:28:23.996Z,1229.23
2018-07-30T03:30:52.797Z,1235.58
2018-07-30T03:33:21.530Z,1235.55
2018-07-30T03:35:50.270Z,1226.90
2018-07-30T03:38:18.994Z,1226.88
2018-07-30T03:40:47.699Z,1227.60
2018-07-30T03:43:17.536Z,1224.95
2018-07-30T03:45:46.279Z,1226.67
2018-07-30T03:48:15.010Z,1234.95
2018-07-30T03:50:44.544Z,1220.95
2018-07-30T03:53:13.482Z,1228.25
2018-07-30T03:55:42.158Z,1226.30
2018-07-30T03:58:10.908Z,1223.25
2018-07-30T04:00:39.675Z,1224.67
2018-07-30T04:03:08.387Z,1221.67
2018-07-30T04:05:37.151Z,1222.70
2018-07-30T04:08:05.921Z,1226.18
2018-07-30T04:10:34.701Z,1219.55
2018-07-30T04:13:03.686Z,1225.60
2018-07-30T04:15:32.552Z,1230.18
2018-07-30T04:18:01.258Z,1235.20
2018-07-30T04:20:30.012Z,1236.90
2018-07-30T04:22:58.816Z,1238.78
2018-07-30T04:25:27.750Z,1243.95
2018-07-30T04:28:00.632Z,1248.15
2018-07-30T04:30:30.331Z,1251.33
2018-07-30T04:32:59.033Z,1254.80
2018-07-30T04:35:27.753Z,1264.63
2018-07-30T04:37:56.406Z,1278.28
2018-07-30T04:40:26.090Z,1285.70
2018-07-30T04:42:54.946Z,1296.83
2018-07-30T04:45:23.610Z,1308.48
2018-07-30T04:47:52.386Z,1315.78
2018-07-30T04:50:21.113Z,1328.45
2018-07-30T04:52:49.915Z,1306.13
2018-07-30T04:55:18.643Z,1314.93
2018-07-30T04:57:47.395Z,1312.00
2018-07-30T05:00:16.072Z,1328.40
2018-07-30T05:02:44.826Z,1335.13
2018-07-30T05:05:13.513Z,1350.80
2018-07-30T05:07:42.176Z,1354.80
2018-07-30T05:10:10.924Z,1370.03
2018-07-30T05:12:39.736Z,1386.90
2018-07-30T05:15:08.506Z,1388.70
2018-07-30T05:17:37.224Z,1382.45
2018-07-30T05:20:06.165Z,1392.10
2018-07-30T05:22:35.063Z,1396.83
2018-07-30T05:25:03.929Z,1401.03
2018-07-30T05:27:32.663Z,1408.13
2018-07-30T05:30:01.422Z,1416.13
2018-07-30T05:32:30.122Z,1416.40
2018-07-30T05:34:58.852Z,1411.93
2018-07-30T05:37:27.589Z,1406.78
2018-07-30T05:39:56.337Z,1399.83
2018-07-30T05:42:25.041Z,1394.55
2018-07-30T05:44:53.779Z,1393.47
2018-07-30T05:47:22.457Z,1391.95
2018-07-30T05:49:53.277Z,1388.35
2018-07-30T05:52:21.953Z,1379.53
2018-07-30T05:54:50.816Z,1376.03
2018-07-30T05:57:19.562Z,1372.77
2018-07-30T05:59:49.335Z,1367.43
2018-07-30T06:02:18.043Z,1368.73
2018-07-30T06:04:46.747Z,1365.93
2018-07-30T06:07:15.449Z,1354.75
2018-07-30T06:09:44.432Z,1358.33
2018-07-30T06:12:13.107Z,1357.00
2018-07-30T06:14:41.893Z,1353.18
2018-07-30T06:17:10.738Z,1350.23
2018-07-30T06:19:39.080Z,1346.23
2018-07-30T06:22:07.793Z,1318.35
2018-07-30T06:24:36.581Z,1225.45
2018-07-30T06:27:05.677Z,1144.08
2018-07-30T06:29:34.339Z,1146.53
2018-07-30T06:32:03.044Z,1125.03
2018-07-30T06:34:31.823Z,1102.75
2018-07-30T06:37:01.054Z,1089.03
2018-07-30T06:39:38.250Z,1077.23
2018-07-30T06:42:06.935Z,1053.57
2018-07-30T06:44:35.684Z,1032.95
2018-07-30T06:47:04.512Z,1039.57
2018-07-30T06:49:33.276Z,992.68
2018-07-30T06:52:02.118Z,993.52
2018-07-30T06:54:30.895Z,983.87
2018-07-30T06:56:59.637Z,969.82
2018-07-30T06:59:28.324Z,950.43
2018-07-30T07:01:57.224Z,1013.60
2018-07-30T07:04:25.879Z,935.77
2018-07-30T07:06:54.595Z,898.23
2018-07-30T07:09:23.498Z,895.20
2018-07-30T07:11:52.178Z,960.62
2018-07-30T07:14:21.885Z,1019.30
2018-07-30T07:16:50.683Z,1057.78
2018-07-30T07:19:19.741Z,1080.23
2018-07-30T07:21:48.502Z,1089.18
2018-07-30T07:24:18.266Z,1074.23
2018-07-30T07:26:47.074Z,1083.30
2018-07-30T07:29:15.850Z,1075.35
2018-07-30T07:31:44.643Z,1077.53
2018-07-30T07:34:15.342Z,1118.60
2018-07-30T07:36:44.170Z,1108.28
2018-07-30T07:39:12.956Z,1156.45
2018-07-30T07:41:41.742Z,1147.18
2018-07-30T07:44:10.483Z,1178.25
2018-07-30T07:46:38.818Z,1234.70
2018-07-30T07:49:07.573Z,1329.17
2018-07-30T07:51:36.432Z,1302.70
2018-07-30T07:54:05.259Z,1325.80
2018-07-30T07:56:33.989Z,1325.97
2018-07-30T07:59:03.753Z,1339.35
2018-07-30T08:01:32.490Z,1341.83
2018-07-30T08:04:01.267Z,1352.28
2018-07-30T08:06:30.082Z,1356.97
2018-07-30T08:08:58.793Z,1342.20
2018-07-30T08:11:27.510Z,1343.80
2018-07-30T08:13:56.601Z,1359.48
2018-07-30T08:16:25.466Z,1358.50
2018-07-30T08:18:54.259Z,1336.88
2018-07-30T08:21:22.968Z,1324.83
2018-07-30T08:23:51.741Z,1320.08
2018-07-30T08:26:20.550Z,1301.20
2018-07-30T08:28:49.891Z,1311.30
2018-07-30T08:31:18.756Z,1235.70
2018-07-30T08:33:47.629Z,1218.67
2018-07-30T08:36:16.328Z,1200.83
2018-07-30T08:38:45.193Z,1184.40
2018-07-30T08:41:13.986Z,1367.33
2018-07-30T08:43:42.659Z,1363.25
2018-07-30T08:46:12.161Z,1366.28
2018-07-30T08:48:41.054Z,1369.08
2018-07-30T08:51:09.794Z,1368.95
2018-07-30T08:53:38.605Z,1375.40
2018-07-30T08:56:07.433Z,1372.98
2018-07-30T08:58:35.879Z,1372.98
2018-07-30T09:01:04.814Z,1370.15
2018-07-30T09:03:33.501Z,1368.28
2018-07-30T09:06:02.350Z,1371.48
2018-07-30T09:08:31.118Z,1373.65
2018-07-30T09:10:59.880Z,1373.97
2018-07-30T09:13:28.185Z,1374.98
2018-07-30T09:15:56.938Z,1372.77
2018-07-30T09:18:25.841Z,1373.00
2018-07-30T09:20:54.547Z,1370.98
2018-07-30T09:23:23.285Z,1372.93
2018-07-30T09:25:52.038Z,1372.70
2018-07-30T09:28:20.459Z,1374.60
2018-07-30T09:30:49.292Z,1374.35
2018-07-30T09:33:18.096Z,1376.60
2018-07-30T09:35:46.760Z,1380.50
2018-07-30T09:38:15.510Z,1381.05
2018-07-30T09:40:44.227Z,1385.25
2018-07-30T09:43:12.957Z,1378.98
2018-07-30T09:45:41.645Z,1382.65
2018-07-30T09:48:10.373Z,1387.00
2018-07-30T09:50:39.151Z,1389.68
2018-07-30T09:53:07.921Z,1391.90
2018-07-30T09:55:36.608Z,1392.27
2018-07-30T09:58:06.342Z,1396.20
2018-07-30T10:00:40.407Z,1400.83
2018-07-30T10:03:09.149Z,1398.65
2018-07-30T10:05:37.844Z,1403.13
2018-07-30T10:08:06.632Z,1404.75
2018-07-30T10:10:34.930Z,1403.53
2018-07-30T10:13:03.737Z,1407.20
2018-07-30T10:15:32.449Z,1402.95
2018-07-30T10:18:01.215Z,1409.63
2018-07-30T10:20:29.915Z,1407.48
2018-07-30T10:22:58.645Z,1412.55
2018-07-30T10:25:27.319Z,1411.13
2018-07-30T10:27:56.054Z,1412.80
2018-07-30T10:30:24.944Z,1411.70
2018-07-30T10:32:53.664Z,1411.13
2018-07-30T10:35:22.593Z,1412.43
2018-07-30T10:37:51.655Z,1412.80
2018-07-30T10:40:20.521Z,1415.18
2018-07-30T10:42:49.221Z,1414.45
2018-07-30T10:45:17.961Z,1416.73
2018-07-30T10:47:46.732Z,1415.90
2018-07-30T10:50:15.502Z,1415.60
2018-07-30T10:52:44.799Z,1414.85
2018-07-30T10:55:13.630Z,1417.22
2018-07-30T10:57:42.427Z,1412.03
2018-07-30T11:00:11.111Z,1416.95
2018-07-30T11:02:39.855Z,1413.90
2018-07-30T11:05:08.561Z,1419.35
2018-07-30T11:07:37.257Z,1424.17
2018-07-30T11:10:06.072Z,1420.93
2018-07-30T11:12:34.811Z,1419.17
2018-07-30T11:15:04.820Z,1421.03
2018-07-30T11:17:33.503Z,1410.95
2018-07-30T11:20:02.335Z,1417.38
2018-07-30T11:22:31.973Z,1400.58
2018-07-30T11:25:00.711Z,1419.95
2018-07-30T11:27:29.477Z,1399.47
2018-07-30T11:29:58.128Z,1409.60
2018-07-30T11:32:26.848Z,1354.00
2018-07-30T11:34:55.604Z,1332.53
2018-07-30T11:37:24.310Z,1311.25
2018-07-30T11:39:53.051Z,1303.35
2018-07-30T11:42:21.768Z,1240.48
2018-07-30T11:44:50.573Z,1120.38
2018-07-30T11:47:19.389Z,1021.10
2018-07-30T11:49:48.101Z,1041.47
2018-07-30T11:52:16.792Z,1043.00
2018-07-30T11:54:45.578Z,1009.60
2018-07-30T11:57:16.847Z,921.70
2018-07-30T11:59:45.530Z,841.92
2018-07-30T12:02:14.357Z,842.98
2018-07-30T12:04:43.062Z,825.62
2018-07-30T12:07:11.743Z,781.10
2018-07-30T12:09:40.550Z,757.97
2018-07-30T12:12:10.231Z,773.45
2018-07-30T12:14:38.901Z,729.27
2018-07-30T12:17:07.617Z,701.80
2018-07-30T12:19:36.293Z,664.05
2018-07-30T12:22:05.038Z,642.20
2018-07-30T12:24:33.847Z,612.92
2018-07-30T12:27:02.536Z,592.50
2018-07-30T12:29:31.812Z,562.98
2018-07-30T12:32:00.620Z,570.38
2018-07-30T12:34:29.260Z,572.83
2018-07-30T12:36:58.078Z,535.58
2018-07-30T12:39:26.769Z,547.17
2018-07-30T12:41:56.596Z,531.27
2018-07-30T12:44:25.230Z,508.23
2018-07-30T12:46:54.008Z,512.83
2018-07-30T12:49:23.686Z,493.73
2018-07-30T12:51:54.447Z,494.10
2018-07-30T12:54:24.170Z,481.67
2018-07-30T12:56:52.910Z,486.28
2018-07-30T12:59:21.510Z,509.30
2018-07-30T13:01:50.310Z,523.02
2018-07-30T13:04:19.008Z,536.35
2018-07-30T13:06:47.772Z,485.43
2018-07-30T13:09:16.521Z,438.83
2018-07-30T13:11:45.313Z,405.77
2018-07-30T13:14:13.989Z,409.75
2018-07-30T13:16:42.778Z,325.55
2018-07-30T13:19:11.487Z,356.20
2018-07-30T13:21:40.324Z,384.52
2018-07-30T13:24:09.092Z,405.90
2018-07-30T13:26:38.045Z,371.25
2018-07-30T13:29:06.671Z,178.90
2018-07-30T13:31:35.039Z,137.62
2018-07-30T13:34:03.817Z,139.30
2018-07-30T13:36:32.595Z,176.33
2018-07-30T13:39:01.363Z,147.07
2018-07-30T13:41:30.154Z,163.95
2018-07-30T13:43:58.867Z,181.43
2018-07-30T13:46:27.685Z,166.73
2018-07-30T13:48:56.323Z,155.30
2018-07-30T13:51:25.111Z,174.12
2018-07-30T13:53:53.826Z,167.62
2018-07-30T13:56:22.592Z,158.05
2018-07-30T13:58:51.366Z,181.95
2018-07-30T14:01:21.053Z,173.60
2018-07-30T14:03:50.748Z,161.37
2018-07-30T14:06:19.517Z,138.57
2018-07-30T14:08:49.005Z,141.10
2018-07-30T14:11:18.261Z,150.27
2018-07-30T14:13:46.942Z,182.67
2018-07-30T14:16:15.707Z,181.05
2018-07-30T14:18:44.506Z,180.72
2018-07-30T14:21:13.175Z,191.12
2018-07-30T14:23:42.962Z,195.55
2018-07-30T14:26:11.789Z,208.27
2018-07-30T14:28:40.511Z,215.45
2018-07-30T14:31:09.212Z,211.77
2018-07-30T14:33:38.014Z,248.25
2018-07-30T14:36:06.702Z,257.43
2018-07-30T14:38:35.669Z,246.33
2018-07-30T14:41:04.371Z,233.78
2018-07-30T14:43:33.201Z,229.50
2018-07-30T14:46:01.979Z,227.62
2018-07-30T14:48:31.287Z,270.17
2018-07-30T14:51:00.024Z,250.47
2018-07-30T14:53:28.826Z,285.48
2018-07-30T14:55:57.671Z,264.63
2018-07-30T14:58:26.546Z,262.42
2018-07-30T15:00:55.294Z,306.07
2018-07-30T15:03:24.079Z,292.53
2018-07-30T15:05:52.986Z,321.65
2018-07-30T15:08:30.313Z,286.97
2018-07-30T15:10:59.113Z,270.57
2018-07-30T15:13:27.456Z,264.85
2018-07-30T15:15:56.205Z,243.10
2018-07-30T15:18:24.859Z,278.07
2018-07-30T15:20:53.630Z,277.03
2018-07-30T15:23:22.422Z,247.75
2018-07-30T15:25:51.706Z,263.80
2018-07-30T15:28:20.347Z,286.52
2018-07-30T15:30:49.089Z,303.88
2018-07-30T15:33:18.767Z,298.18
2018-07-30T15:35:47.454Z,348.50
2018-07-30T15:38:17.740Z,332.67
2018-07-30T15:40:46.494Z,342.17
2018-07-30T15:43:15.192Z,338.98
2018-07-30T15:45:44.021Z,307.20
2018-07-30T15:48:12.779Z,286.15
2018-07-30T15:50:41.408Z,322.00
2018-07-30T15:53:11.187Z,367.07
2018-07-30T15:55:39.877Z,353.42
2018-07-30T15:58:08.595Z,355.93
2018-07-30T16:00:37.248Z,373.82
2018-07-30T16:03:06.076Z,362.82
2018-07-30T16:05:35.817Z,405.90
2018-07-30T16:08:04.884Z,424.38
2018-07-30T16:10:33.623Z,426.13
2018-07-30T16:13:02.355Z,421.48
2018-07-30T16:15:31.064Z,616.40
2018-07-30T16:17:59.808Z,417.75
2018-07-30T16:20:28.482Z,447.05
2018-07-30T16:22:57.279Z,503.25
2018-07-30T16:25:26.440Z,408.25
2018-07-30T16:27:55.124Z,442.87
2018-07-30T16:30:23.946Z,466.10
2018-07-30T16:32:52.668Z,467.10
2018-07-30T16:35:21.421Z,462.30
2018-07-30T16:37:50.365Z,488.33
2018-07-30T16:40:19.093Z,460.52
2018-07-30T16:42:47.869Z,465.90
2018-07-30T16:45:16.674Z,496.48
2018-07-30T16:47:45.569Z,980.47
2018-07-30T16:50:14.298Z,465.12
2018-07-30T16:52:43.097Z,447.13
2018-07-30T16:55:16.892Z,466.77
2018-07-30T16:57:45.697Z,431.17
2018-07-30T17:00:14.993Z,458.70
2018-07-30T17:02:43.715Z,467.77
2018-07-30T17:05:12.757Z,468.80
2018-07-30T17:07:41.399Z,451.52
2018-07-30T17:10:10.164Z,476.82
2018-07-30T17:12:38.986Z,1028.20
2018-07-30T17:15:07.864Z,507.92
2018-07-30T17:17:36.626Z,514.73
2018-07-30T17:20:07.589Z,503.50
2018-07-30T17:22:36.377Z,466.73
2018-07-30T17:25:05.168Z,647.92
2018-07-30T17:27:34.241Z,430.83
2018-07-30T17:30:03.167Z,430.95
2018-07-30T17:32:32.011Z,375.80
2018-07-30T17:35:02.210Z,419.23
2018-07-30T17:37:30.999Z,433.87
2018-07-30T17:39:59.886Z,439.23
2018-07-30T17:42:30.556Z,441.37
2018-07-30T17:45:02.392Z,448.23
2018-07-30T17:47:31.267Z,425.90
2018-07-30T17:50:00.374Z,451.80
2018-07-30T17:52:29.264Z,472.02
2018-07-30T17:54:58.234Z,474.50
2018-07-30T17:57:27.194Z,494.88
2018-07-30T17:59:56.996Z,522.05
2018-07-30T18:02:26.346Z,500.92
2018-07-30T18:04:55.123Z,512.38
2018-07-30T18:07:24.918Z,534.83
2018-07-30T18:09:53.773Z,548.47
2018-07-30T18:12:22.571Z,570.17
2018-07-30T18:14:51.390Z,579.07
2018-07-30T18:17:20.212Z,622.15
2018-07-30T18:19:48.844Z,615.40
2018-07-30T18:22:18.184Z,589.83
2018-07-30T18:24:47.046Z,566.92
2018-07-30T18:27:15.891Z,568.52
2018-07-30T18:29:44.657Z,586.62
2018-07-30T18:32:13.571Z,627.62
2018-07-30T18:34:42.280Z,638.50
2018-07-30T18:37:12.058Z,685.48
2018-07-30T18:39:40.868Z,669.47
2018-07-30T18:42:10.793Z,705.00
2018-07-30T18:44:39.544Z,738.25
2018-07-30T18:47:08.355Z,703.10
2018-07-30T18:49:37.052Z,715.75
2018-07-30T18:52:05.780Z,707.83
2018-07-30T18:54:35.157Z,708.23
2018-07-30T18:57:03.976Z,694.77
2018-07-30T18:59:33.719Z,705.80
2018-07-30T19:02:02.418Z,724.50
2018-07-30T19:04:31.167Z,730.27
2018-07-30T19:06:59.974Z,758.48
2018-07-30T19:09:28.972Z,760.10
2018-07-30T19:11:57.709Z,765.30
2018-07-30T19:14:26.770Z,798.40
2018-07-30T19:16:55.602Z,790.17
2018-07-30T19:19:24.413Z,803.03
2018-07-30T19:21:53.417Z,825.13
2018-07-30T19:24:22.344Z,837.80
2018-07-30T19:26:51.111Z,757.40
2018-07-30T19:29:19.926Z,835.25
2018-07-30T19:31:49.980Z,810.10
2018-07-30T19:34:18.782Z,815.50
2018-07-30T19:36:47.635Z,840.17
2018-07-30T19:39:17.657Z,850.60
2018-07-30T19:41:46.445Z,833.42
2018-07-30T19:44:15.667Z,811.08
2018-07-30T19:46:44.424Z,753.77
2018-07-30T19:49:13.137Z,849.05
2018-07-30T19:51:42.319Z,864.75
2018-07-30T19:54:11.387Z,864.40
2018-07-30T19:56:41.213Z,864.70
2018-07-30T19:59:10.459Z,887.97
2018-07-30T20:01:40.192Z,869.88
2018-07-30T20:04:09.047Z,890.12
2018-07-30T20:06:38.004Z,882.32
2018-07-30T20:09:10.378Z,857.47
2018-07-30T20:11:39.124Z,732.17
2018-07-30T20:14:08.318Z,653.50
2018-07-30T20:16:38.158Z,649.35
2018-07-30T20:19:07.949Z,631.85
2018-07-30T20:21:36.859Z,634.33
2018-07-30T20:24:06.078Z,621.85
2018-07-30T20:26:34.949Z,660.58
2018-07-30T20:29:03.991Z,683.05
2018-07-30T20:31:32.784Z,671.98
2018-07-30T20:34:02.654Z,660.02
2018-07-30T20:36:32.389Z,686.90
2018-07-30T20:39:01.455Z,659.10
2018-07-30T20:41:30.353Z,693.37
2018-07-30T20:43:59.122Z,696.42
2018-07-30T20:46:31.060Z,694.92
2018-07-30T20:49:00.852Z,710.27
2018-07-30T20:51:29.676Z,1205.13
2018-07-30T20:53:58.404Z,742.55
2018-07-30T20:56:27.164Z,729.90
2018-07-30T20:58:56.007Z,708.12
2018-07-30T21:01:24.733Z,694.85
2018-07-30T21:03:53.631Z,721.53
2018-07-30T21:06:22.311Z,795.75
2018-07-30T21:08:51.106Z,792.15
2018-07-30T21:11:20.462Z,1033.80
2018-07-30T21:13:49.220Z,854.50
2018-07-30T21:16:19.000Z,803.03
2018-07-30T21:18:48.043Z,800.62
2018-07-30T21:21:16.940Z,842.17
2018-07-30T21:23:45.711Z,846.52
2018-07-30T21:26:15.465Z,834.67
2018-07-30T21:28:45.251Z,713.98
2018-07-30T21:31:14.150Z,875.15
2018-07-30T21:33:42.978Z,962.00
2018-07-30T21:36:11.724Z,790.88
2018-07-30T21:38:40.592Z,803.63
2018-07-30T21:41:08.872Z,806.00
2018-07-30T21:43:37.665Z,820.37
2018-07-30T21:46:06.421Z,850.45
2018-07-30T21:48:36.263Z,840.32
2018-07-30T21:51:05.766Z,834.65
2018-07-30T21:53:36.251Z,852.20
2018-07-30T21:56:05.384Z,804.25
2018-07-30T21:58:34.120Z,862.42
2018-07-30T22:01:02.922Z,865.10
2018-07-30T22:03:33.590Z,787.55
2018-07-30T22:06:03.421Z,705.83
2018-07-30T22:08:32.266Z,711.45
2018-07-30T22:11:01.030Z,688.77
2018-07-30T22:13:30.888Z,715.73
2018-07-30T22:15:59.748Z,775.87
2018-07-30T22:18:28.123Z,748.60
2018-07-30T22:20:56.811Z,727.88
2018-07-30T22:23:25.553Z,743.95
2018-07-30T22:25:54.333Z,717.50
2018-07-30T22:28:26.293Z,767.75
2018-07-30T22:30:56.069Z,746.95
2018-07-30T22:33:25.766Z,726.33
2018-07-30T22:35:54.578Z,748.25
2018-07-30T22:38:23.304Z,792.72
2018-07-30T22:40:52.005Z,763.33
2018-07-30T22:43:21.742Z,765.75
2018-07-30T22:45:50.502Z,784.17
2018-07-30T22:48:19.199Z,782.17
2018-07-30T22:50:48.055Z,796.12
2018-07-30T22:53:16.780Z,796.72
2018-07-30T22:55:46.488Z,844.15
2018-07-30T22:58:16.097Z,874.20
2018-07-30T23:00:44.974Z,954.77
2018-07-30T23:03:14.472Z,1008.55
2018-07-30T23:05:43.726Z,997.63
2018-07-30T23:08:12.520Z,995.15
2018-07-30T23:10:42.347Z,1043.08
2018-07-30T23:13:11.117Z,1058.80
2018-07-30T23:15:39.845Z,1246.05
2018-07-30T23:18:08.866Z,1258.30
2018-07-30T23:20:37.767Z,1268.50
2018-07-30T23:23:06.553Z,1266.33
2018-07-30T23:25:35.445Z,1261.65
2018-07-30T23:28:04.236Z,1268.45
2018-07-30T23:30:33.859Z,1271.93
2018-07-30T23:33:02.596Z,1296.70
2018-07-30T23:35:31.467Z,1295.75
2018-07-30T23:38:01.260Z,1290.50
2018-07-30T23:40:30.028Z,1306.00
2018-07-30T23:42:58.833Z,1312.20
2018-07-30T23:45:27.534Z,1320.83
2018-07-30T23:47:56.263Z,1306.18
2018-07-30T23:50:25.173Z,1303.03
2018-07-30T23:52:53.977Z,1311.28
2018-07-30T23:55:22.739Z,1299.73
2018-07-30T23:57:51.556Z,1315.33
